createdAt,value
2017-04-29T00:00:33.323Z,59.67
2017-04-29T00:01:13.856Z,59.09
2017-04-29T00:01:54.337Z,60.24
2017-04-29T00:02:34.797Z,60.72
2017-04-29T00:03:15.291Z,60.33
2017-04-29T00:03:55.806Z,61.19
2017-04-29T00:04:36.364Z,61.19
2017-04-29T00:05:16.835Z,61.1
2017-04-29T00:05:57.279Z,61
2017-04-29T00:06:37.773Z,61
2017-04-29T00:07:18.225Z,60.81
2017-04-29T00:07:58.740Z,61.1
2017-04-29T00:08:39.302Z,61.29
2017-04-29T00:09:19.745Z,61.67
2017-04-29T00:10:00.234Z,61.19
2017-04-29T00:10:40.735Z,61
2017-04-29T00:11:21.286Z,61.57
2017-04-29T00:12:01.760Z,61.19
2017-04-29T00:12:42.229Z,61.57
2017-04-29T00:13:22.723Z,61.48
2017-04-29T00:14:03.250Z,61.48
2017-04-29T00:14:43.712Z,61.38
2017-04-29T00:15:24.193Z,61.57
2017-04-29T00:16:04.687Z,61.57
2017-04-29T00:16:45.198Z,61.96
2017-04-29T00:17:25.690Z,62.24
2017-04-29T00:18:06.229Z,61.96
2017-04-29T00:18:46.719Z,62.15
2017-04-29T00:19:27.250Z,62.15
2017-04-29T00:20:07.746Z,61.96
2017-04-29T00:20:48.225Z,61.96
2017-04-29T00:21:28.725Z,62.15
2017-04-29T00:22:09.256Z,62.43
2017-04-29T00:22:49.731Z,62.52
2017-04-29T00:23:30.209Z,62.43
2017-04-29T00:24:10.687Z,62.52
2017-04-29T00:24:51.242Z,62.24
2017-04-29T00:25:31.723Z,62.24
2017-04-29T00:26:12.281Z,62.05
2017-04-29T00:26:52.770Z,62.24
2017-04-29T00:27:33.289Z,61.76
2017-04-29T00:28:13.752Z,61.76
2017-04-29T00:28:54.246Z,61.29
2017-04-29T00:29:34.719Z,61.76
2017-04-29T00:30:15.243Z,61.48
2017-04-29T00:30:55.760Z,62.15
2017-04-29T00:31:36.260Z,62.15
2017-04-29T00:32:16.784Z,62.15
2017-04-29T00:32:57.306Z,62.05
2017-04-29T00:33:37.815Z,62.24
2017-04-29T00:34:18.313Z,62.15
2017-04-29T00:34:58.809Z,62.05
2017-04-29T00:35:39.316Z,62.15
2017-04-29T00:36:19.871Z,61.96
2017-04-29T00:37:00.359Z,62.24
2017-04-29T00:37:40.878Z,62.15
2017-04-29T00:38:21.410Z,62.15
2017-04-29T00:39:01.914Z,61.96
2017-04-29T00:39:42.434Z,62.43
2017-04-29T00:40:22.957Z,62.62
2017-04-29T00:41:03.473Z,62.62
2017-04-29T00:41:44.044Z,62.62
2017-04-29T00:42:24.546Z,62.81
2017-04-29T00:43:05.068Z,62.91
2017-04-29T00:43:45.589Z,63.1
2017-04-29T00:44:26.110Z,63.29
2017-04-29T00:45:06.625Z,63.2
2017-04-29T00:45:47.147Z,63.57
2017-04-29T00:46:27.680Z,63.48
2017-04-29T00:47:08.170Z,63.29
2017-04-29T00:47:48.667Z,63.76
2017-04-29T00:48:29.115Z,63.48
2017-04-29T00:49:09.626Z,63
2017-04-29T00:49:50.112Z,63.2
2017-04-29T00:50:30.618Z,63.1
2017-04-29T00:51:11.091Z,62.91
2017-04-29T00:51:51.608Z,63.1
2017-04-29T00:52:32.133Z,63
2017-04-29T00:53:12.638Z,63.57
2017-04-29T00:53:53.158Z,63.64
2017-04-29T00:54:33.709Z,63.83
2017-04-29T00:56:52.076Z,63.73
2017-04-29T00:57:32.595Z,64.02
2017-04-29T00:58:13.125Z,63.64
2017-04-29T00:58:53.721Z,63.67
2017-04-29T00:59:34.241Z,63.76
2017-04-29T01:00:14.770Z,63.86
2017-04-29T01:00:55.294Z,63.2
2017-04-29T01:01:35.814Z,63.29
2017-04-29T01:02:16.354Z,63.1
2017-04-29T01:02:56.871Z,63.29
2017-04-29T01:03:37.403Z,63.2
2017-04-29T01:04:17.912Z,63.29
2017-04-29T01:04:58.428Z,63.2
2017-04-29T01:05:38.952Z,63.67
2017-04-29T01:06:19.460Z,63.57
2017-04-29T01:06:59.974Z,63.57
2017-04-29T01:07:40.475Z,63.76
2017-04-29T01:08:21.001Z,63.76
2017-04-29T01:09:01.511Z,63.29
2017-04-29T01:09:42.027Z,63.2
2017-04-29T01:10:22.557Z,63.1
2017-04-29T01:11:03.088Z,62.62
2017-04-29T01:11:43.610Z,62.62
2017-04-29T01:12:24.262Z,63.29
2017-04-29T01:13:04.775Z,63.29
2017-04-29T01:13:45.305Z,62.43
2017-04-29T01:14:25.828Z,63.1
2017-04-29T01:15:06.358Z,62.62
2017-04-29T01:15:46.867Z,62.62
2017-04-29T01:16:27.387Z,62.62
2017-04-29T01:17:07.902Z,62.81
2017-04-29T01:17:48.425Z,62.62
2017-04-29T01:18:28.938Z,62.52
2017-04-29T01:19:09.514Z,62.52
2017-04-29T01:19:50.022Z,62.81
2017-04-29T01:20:30.553Z,62.62
2017-04-29T01:21:11.070Z,62.72
2017-04-29T01:21:51.598Z,62.81
2017-04-29T01:22:32.124Z,62.72
2017-04-29T01:23:12.636Z,62.72
2017-04-29T01:23:53.164Z,62.62
2017-04-29T01:24:33.679Z,62.72
2017-04-29T01:25:14.194Z,62.62
2017-04-29T01:25:54.710Z,62.49
2017-04-29T01:26:35.231Z,62.78
2017-04-29T01:27:15.746Z,62.52
2017-04-29T01:27:56.274Z,62.4
2017-04-29T01:28:36.778Z,62.49
2017-04-29T01:29:17.299Z,62.59
2017-04-29T01:29:57.820Z,62.72
2017-04-29T01:30:38.342Z,62.91
2017-04-29T01:31:18.853Z,62.24
2017-04-29T01:31:59.379Z,62.43
2017-04-29T01:32:39.923Z,62.43
2017-04-29T01:33:20.411Z,62.72
2017-04-29T01:34:00.930Z,62.72
2017-04-29T01:34:41.451Z,62.62
2017-04-29T01:35:21.960Z,62.34
2017-04-29T01:36:02.472Z,62.24
2017-04-29T01:36:42.991Z,62.52
2017-04-29T01:37:23.532Z,62.24
2017-04-29T01:38:04.055Z,62.05
2017-04-29T01:38:44.583Z,62.05
2017-04-29T01:39:25.097Z,62.34
2017-04-29T01:40:05.627Z,62.05
2017-04-29T01:40:46.132Z,62.15
2017-04-29T01:41:26.836Z,62.05
2017-04-29T01:42:07.360Z,61.67
2017-04-29T01:42:47.881Z,61.76
2017-04-29T01:43:28.436Z,62.15
2017-04-29T01:44:08.934Z,61.96
2017-04-29T01:44:49.456Z,62.34
2017-04-29T01:45:29.978Z,61.76
2017-04-29T01:46:10.505Z,61.38
2017-04-29T01:46:51.009Z,61.19
2017-04-29T01:47:31.522Z,61.76
2017-04-29T01:48:12.030Z,61.96
2017-04-29T01:48:52.559Z,61.86
2017-04-29T01:49:33.062Z,61.96
2017-04-29T01:50:13.585Z,61.76
2017-04-29T01:50:54.057Z,61.96
2017-04-29T01:51:34.576Z,61.67
2017-04-29T01:52:15.084Z,62.05
2017-04-29T01:52:55.604Z,62.05
2017-04-29T01:53:36.143Z,62.05
2017-04-29T01:54:16.670Z,62.05
2017-04-29T01:54:57.199Z,62.62
2017-04-29T01:55:37.711Z,62.52
2017-04-29T01:56:18.235Z,62.62
2017-04-29T01:56:58.732Z,62.24
2017-04-29T01:57:39.243Z,62.15
2017-04-29T01:58:26.417Z,62.15
2017-04-29T01:59:06.918Z,62.3
2017-04-29T01:59:47.435Z,62.91
2017-04-29T02:00:27.968Z,63.29
2017-04-29T02:01:08.478Z,62.52
2017-04-29T02:01:49.002Z,62.43
2017-04-29T02:02:29.520Z,62.81
2017-04-29T02:03:10.033Z,62.43
2017-04-29T02:03:50.545Z,62.34
2017-04-29T02:04:31.065Z,62.24
2017-04-29T02:05:11.615Z,62.43
2017-04-29T02:05:52.130Z,62.24
2017-04-29T02:06:32.658Z,62.12
2017-04-29T02:07:13.167Z,62.68
2017-04-29T02:07:53.686Z,62.59
2017-04-29T02:08:34.208Z,62.49
2017-04-29T02:09:14.737Z,62.62
2017-04-29T02:09:55.265Z,62.52
2017-04-29T02:10:35.791Z,62.81
2017-04-29T02:11:16.318Z,62.4
2017-04-29T02:11:56.913Z,63.26
2017-04-29T02:12:37.369Z,62.72
2017-04-29T02:13:17.881Z,62.49
2017-04-29T02:13:58.411Z,62.49
2017-04-29T02:14:38.935Z,62.59
2017-04-29T02:15:19.448Z,63.07
2017-04-29T02:15:59.964Z,62.52
2017-04-29T02:16:40.483Z,62.24
2017-04-29T02:17:20.997Z,62.52
2017-04-29T02:18:01.519Z,62.34
2017-04-29T02:18:42.075Z,62.81
2017-04-29T02:19:22.583Z,62.15
2017-04-29T02:20:03.099Z,62.34
2017-04-29T02:20:43.625Z,62.52
2017-04-29T02:21:24.145Z,62.12
2017-04-29T02:22:04.665Z,62.62
2017-04-29T02:22:45.183Z,62.15
2017-04-29T02:23:25.706Z,62.68
2017-04-29T02:24:06.212Z,62.34
2017-04-29T02:24:46.732Z,62.88
2017-04-29T02:25:27.267Z,62.3
2017-04-29T02:26:07.790Z,62.81
2017-04-29T02:26:48.308Z,62.88
2017-04-29T02:27:28.829Z,62.59
2017-04-29T02:28:09.346Z,62.49
2017-04-29T02:28:49.873Z,62.49
2017-04-29T02:29:30.390Z,62.78
2017-04-29T02:30:10.906Z,63.35
2017-04-29T02:30:51.420Z,63.07
2017-04-29T02:31:31.939Z,63.83
2017-04-29T02:32:12.434Z,63.73
2017-04-29T02:34:05.545Z,63.54
2017-04-29T02:34:46.558Z,63.64
2017-04-29T02:37:00.297Z,64.69
2017-04-29T02:37:40.812Z,64.5
2017-04-29T02:38:21.330Z,64.5
2017-04-29T02:39:01.854Z,64.4
2017-04-29T02:39:42.365Z,64.5
2017-04-29T02:40:22.915Z,64.5
2017-04-29T02:41:03.405Z,63.83
2017-04-29T02:41:43.898Z,63.92
2017-04-29T02:42:24.420Z,63.54
2017-04-29T02:43:04.937Z,63.54
2017-04-29T02:43:45.449Z,63.64
2017-04-29T02:44:25.969Z,63.64
2017-04-29T02:45:06.484Z,64.02
2017-04-29T02:45:48.057Z,63.92
2017-04-29T02:46:28.401Z,64.12
2017-04-29T02:47:08.919Z,64.12
2017-04-29T02:47:49.438Z,64.31
2017-04-29T02:48:29.944Z,64.02
2017-04-29T02:49:10.463Z,63.73
2017-04-29T02:49:50.993Z,63.83
2017-04-29T02:50:32.206Z,64.18
2017-04-29T02:51:12.743Z,63.92
2017-04-29T02:51:53.241Z,64.12
2017-04-29T02:52:33.750Z,63.92
2017-04-29T02:53:14.272Z,63.54
2017-04-29T02:53:54.792Z,63.83
2017-04-29T02:54:35.297Z,63.73
2017-04-29T02:55:15.820Z,63.64
2017-04-29T02:55:58.956Z,63.64
2017-04-29T02:56:39.467Z,63.54
2017-04-29T02:57:19.978Z,63.64
2017-04-29T02:58:00.473Z,63.83
2017-04-29T02:58:40.993Z,63.73
2017-04-29T02:59:21.508Z,63.45
2017-04-29T03:00:02.023Z,63.35
2017-04-29T03:00:42.552Z,63.7
2017-04-29T03:01:23.073Z,63.42
2017-04-29T03:02:03.586Z,63.7
2017-04-29T03:02:44.122Z,63.89
2017-04-29T03:03:24.633Z,63.8
2017-04-29T03:04:05.153Z,63.32
2017-04-29T03:04:45.659Z,63.89
2017-04-29T03:05:26.161Z,63.89
2017-04-29T03:06:06.684Z,63.64
2017-04-29T03:06:47.210Z,63.73
2017-04-29T03:07:27.719Z,63.64
2017-04-29T03:08:08.232Z,63.35
2017-04-29T03:08:48.750Z,63.73
2017-04-29T03:09:29.259Z,63.73
2017-04-29T03:10:09.780Z,63.45
2017-04-29T03:10:50.307Z,63.26
2017-04-29T03:11:30.858Z,62.49
2017-04-29T03:12:11.358Z,63.45
2017-04-29T03:12:51.880Z,63.45
2017-04-29T03:13:32.398Z,63.54
2017-04-29T03:14:12.912Z,62.94
2017-04-29T03:14:53.420Z,63.17
2017-04-29T03:15:33.985Z,63.6
2017-04-29T03:16:14.525Z,63.42
2017-04-29T03:16:55.048Z,63.73
2017-04-29T03:17:35.565Z,63.89
2017-04-29T03:18:16.082Z,63.6
2017-04-29T03:18:56.637Z,64.08
2017-04-29T03:19:37.159Z,64.56
2017-04-29T03:20:17.668Z,64.69
2017-04-29T03:20:58.192Z,64.12
2017-04-29T03:21:38.711Z,63.54
2017-04-29T03:22:19.223Z,63.92
2017-04-29T03:22:59.752Z,63.45
2017-04-29T03:23:40.267Z,63.45
2017-04-29T03:24:20.774Z,63.54
2017-04-29T03:25:01.290Z,63.26
2017-04-29T03:25:41.799Z,63.54
2017-04-29T03:26:22.303Z,63.83
2017-04-29T03:27:02.826Z,63.45
2017-04-29T03:27:43.338Z,63.64
2017-04-29T03:28:23.841Z,63.64
2017-04-29T03:29:04.366Z,63.73
2017-04-29T03:29:44.882Z,63.45
2017-04-29T03:30:25.392Z,63.26
2017-04-29T03:31:05.864Z,63.73
2017-04-29T03:31:46.412Z,63.54
2017-04-29T03:32:26.856Z,63.83
2017-04-29T03:33:07.380Z,62.88
2017-04-29T03:33:47.849Z,63.64
2017-04-29T03:34:28.350Z,63.64
2017-04-29T03:35:08.821Z,63.17
2017-04-29T03:35:49.320Z,62.78
2017-04-29T03:36:29.793Z,63.26
2017-04-29T03:37:10.305Z,62.78
2017-04-29T03:37:50.832Z,63.26
2017-04-29T03:38:31.346Z,63.54
2017-04-29T03:39:11.891Z,64.02
2017-04-29T03:39:52.374Z,63.83
2017-04-29T03:40:32.902Z,64.5
2017-04-29T03:41:13.411Z,64.84
2017-04-29T03:41:53.923Z,65.61
2017-04-29T03:42:34.449Z,65.8
2017-04-29T03:43:14.973Z,65.8
2017-04-29T03:43:55.492Z,65.61
2017-04-29T03:44:36.035Z,65.8
2017-04-29T03:45:16.549Z,65.7
2017-04-29T03:45:57.114Z,66.18
2017-04-29T03:46:37.593Z,65.8
2017-04-29T03:47:18.113Z,66.75
2017-04-29T03:47:58.637Z,67.1
2017-04-29T03:48:39.157Z,67.29
2017-04-29T03:49:19.665Z,67.29
2017-04-29T03:50:00.182Z,67.61
2017-04-29T03:50:40.685Z,67.22
2017-04-29T03:51:21.202Z,67.03
2017-04-29T03:52:01.718Z,67.13
2017-04-29T03:52:42.229Z,67.13
2017-04-29T03:53:22.746Z,67.38
2017-04-29T03:54:03.251Z,67.38
2017-04-29T03:54:43.774Z,67.67
2017-04-29T03:55:24.294Z,67.67
2017-04-29T03:56:04.809Z,67.57
2017-04-29T03:56:45.329Z,67.76
2017-04-29T03:57:25.843Z,67.86
2017-04-29T03:58:06.368Z,67.76
2017-04-29T03:58:46.841Z,67.47
2017-04-29T03:59:27.369Z,67.7
2017-04-29T04:00:07.915Z,68.05
2017-04-29T04:00:48.430Z,67.76
2017-04-29T04:01:28.951Z,67.67
2017-04-29T04:02:09.481Z,67.38
2017-04-29T04:02:49.993Z,67.57
2017-04-29T04:03:30.517Z,67.86
2017-04-29T04:04:11.040Z,67.95
2017-04-29T04:04:51.545Z,67.67
2017-04-29T04:05:32.081Z,67.67
2017-04-29T04:06:12.595Z,67.86
2017-04-29T04:06:53.124Z,67.76
2017-04-29T04:07:33.649Z,67.76
2017-04-29T04:08:14.129Z,67.67
2017-04-29T04:08:54.650Z,67.86
2017-04-29T04:09:35.171Z,67.86
2017-04-29T04:10:15.656Z,67.47
2017-04-29T04:10:56.168Z,67.67
2017-04-29T04:11:36.693Z,68.05
2017-04-29T04:12:17.226Z,67.86
2017-04-29T04:12:57.748Z,67.86
2017-04-29T04:13:38.273Z,67.38
2017-04-29T04:14:18.786Z,67.47
2017-04-29T04:14:59.311Z,67.32
2017-04-29T04:15:39.813Z,67.47
2017-04-29T04:16:20.324Z,66.94
2017-04-29T04:17:00.851Z,66.94
2017-04-29T04:17:41.363Z,67.13
2017-04-29T04:18:21.881Z,66.66
2017-04-29T04:19:02.430Z,66.37
2017-04-29T04:19:42.930Z,66.37
2017-04-29T04:20:23.438Z,66.37
2017-04-29T04:21:03.956Z,66.37
2017-04-29T04:21:44.469Z,66.18
2017-04-29T04:22:24.984Z,66.08
2017-04-29T04:23:05.494Z,65.95
2017-04-29T04:23:46.023Z,66.56
2017-04-29T04:24:26.530Z,66.46
2017-04-29T04:25:07.045Z,66.27
2017-04-29T04:25:47.599Z,66.46
2017-04-29T04:26:28.064Z,66.24
2017-04-29T04:27:08.581Z,66.27
2017-04-29T04:27:49.051Z,66.27
2017-04-29T04:28:29.582Z,66.08
2017-04-29T04:29:10.106Z,66.46
2017-04-29T04:29:50.627Z,66.18
2017-04-29T04:30:31.152Z,65.8
2017-04-29T04:31:11.663Z,65.13
2017-04-29T04:31:52.175Z,65.8
2017-04-29T04:32:32.679Z,65.8
2017-04-29T04:33:13.182Z,64.84
2017-04-29T04:33:53.689Z,64.56
2017-04-29T04:34:34.205Z,64.87
2017-04-29T04:35:14.717Z,64.87
2017-04-29T04:35:55.255Z,64.4
2017-04-29T04:36:35.719Z,64.5
2017-04-29T04:37:16.235Z,64.78
2017-04-29T04:37:56.734Z,64.31
2017-04-29T04:38:37.242Z,64.02
2017-04-29T04:39:17.758Z,64.02
2017-04-29T04:39:58.274Z,64.02
2017-04-29T04:40:38.790Z,64.02
2017-04-29T04:41:19.312Z,63.54
2017-04-29T04:41:59.810Z,63.83
2017-04-29T04:42:40.337Z,63.64
2017-04-29T04:43:20.846Z,63.26
2017-04-29T04:44:01.347Z,63.35
2017-04-29T04:44:41.871Z,63.17
2017-04-29T04:45:22.386Z,63.26
2017-04-29T04:46:02.907Z,63.17
2017-04-29T04:46:43.416Z,63.17
2017-04-29T04:47:23.920Z,63.07
2017-04-29T04:48:04.449Z,63.07
2017-04-29T04:48:44.962Z,63.07
2017-04-29T04:49:25.506Z,63.35
2017-04-29T04:50:06.019Z,63.54
2017-04-29T04:50:46.545Z,63.17
2017-04-29T04:51:27.063Z,63.35
2017-04-29T04:52:07.586Z,62.59
2017-04-29T04:52:48.103Z,62.68
2017-04-29T04:53:28.635Z,62.59
2017-04-29T04:54:09.189Z,62.68
2017-04-29T04:54:49.668Z,62.59
2017-04-29T04:55:30.189Z,62.72
2017-04-29T04:56:10.745Z,62.52
2017-04-29T04:56:51.261Z,62.34
2017-04-29T04:57:31.788Z,62.24
2017-04-29T04:59:30.020Z,62.4
2017-04-29T05:00:10.533Z,62.72
2017-04-29T05:00:51.056Z,62.81
2017-04-29T05:01:31.594Z,62.12
2017-04-29T05:02:12.132Z,62.43
2017-04-29T05:02:52.660Z,62.34
2017-04-29T05:03:33.179Z,62.05
2017-04-29T05:04:13.694Z,62.05
2017-04-29T05:04:54.213Z,62.43
2017-04-29T05:05:34.715Z,61.96
2017-04-29T05:06:15.235Z,61.76
2017-04-29T05:06:55.727Z,61.19
2017-04-29T05:07:36.252Z,61.48
2017-04-29T05:08:16.763Z,61.38
2017-04-29T05:08:57.269Z,61.38
2017-04-29T05:09:37.765Z,61.19
2017-04-29T05:10:18.279Z,61.1
2017-04-29T05:10:58.801Z,61.48
2017-04-29T05:11:39.325Z,61.38
2017-04-29T05:12:19.845Z,61.19
2017-04-29T05:13:00.362Z,61
2017-04-29T05:13:40.874Z,61.29
2017-04-29T05:14:21.472Z,61.67
2017-04-29T05:15:01.978Z,61.48
2017-04-29T05:15:42.511Z,61.48
2017-04-29T05:16:23.034Z,61.1
2017-04-29T05:17:03.552Z,61.1
2017-04-29T05:17:44.064Z,60.72
2017-04-29T05:18:24.581Z,60.52
2017-04-29T05:19:05.098Z,60.91
2017-04-29T05:19:45.614Z,61.1
2017-04-29T05:20:26.222Z,60.52
2017-04-29T05:21:06.759Z,60.52
2017-04-29T05:21:47.260Z,60.55
2017-04-29T05:22:27.774Z,60.75
2017-04-29T05:23:08.303Z,60.27
2017-04-29T05:23:48.816Z,59.99
2017-04-29T05:24:29.344Z,59.86
2017-04-29T05:25:09.859Z,59.79
2017-04-29T05:25:50.394Z,59.99
2017-04-29T05:26:30.893Z,59.79
2017-04-29T05:27:11.410Z,59.89
2017-04-29T05:27:51.941Z,59.41
2017-04-29T05:28:32.443Z,59.79
2017-04-29T05:29:12.952Z,59.22
2017-04-29T05:29:53.466Z,59.22
2017-04-29T05:30:33.991Z,58.75
2017-04-29T05:31:14.530Z,58.46
2017-04-29T05:31:54.997Z,58.65
2017-04-29T05:32:35.527Z,58.65
2017-04-29T05:33:16.050Z,58.55
2017-04-29T05:33:56.558Z,58.77
2017-04-29T05:34:37.076Z,57.72
2017-04-29T05:35:17.612Z,57.34
2017-04-29T05:35:58.089Z,57.15
2017-04-29T05:36:38.625Z,57.24
2017-04-29T05:37:19.219Z,57.15
2017-04-29T05:37:59.688Z,56.96
2017-04-29T05:38:40.201Z,56.38
2017-04-29T05:39:20.721Z,56.23
2017-04-29T05:40:01.203Z,55.65
2017-04-29T05:40:41.727Z,55.27
2017-04-29T05:41:22.229Z,55.08
2017-04-29T05:42:02.727Z,55.27
2017-04-29T05:42:43.249Z,54.99
2017-04-29T05:43:23.769Z,55.18
2017-04-29T05:44:04.291Z,55.08
2017-04-29T05:44:44.804Z,54.82
2017-04-29T05:45:25.323Z,54.44
2017-04-29T05:46:05.851Z,54.15
2017-04-29T05:46:46.440Z,54.06
2017-04-29T05:47:26.918Z,54.15
2017-04-29T05:48:07.435Z,54.25
2017-04-29T05:48:47.944Z,53.67
2017-04-29T05:49:28.465Z,53.77
2017-04-29T05:50:08.963Z,53.49
2017-04-29T05:50:49.480Z,53.29
2017-04-29T05:51:29.988Z,53.29
2017-04-29T05:52:10.514Z,53.67
2017-04-29T05:52:51.028Z,54.25
2017-04-29T05:53:31.547Z,54.13
2017-04-29T05:54:12.070Z,54.41
2017-04-29T05:54:52.586Z,54.99
2017-04-29T05:55:33.100Z,55.27
2017-04-29T05:56:13.621Z,55.36
2017-04-29T05:56:54.139Z,55.27
2017-04-29T05:57:34.691Z,55.18
2017-04-29T05:58:15.199Z,56.01
2017-04-29T05:58:55.720Z,54.96
2017-04-29T05:59:36.225Z,55.62
2017-04-29T06:00:16.739Z,55.82
2017-04-29T06:00:57.266Z,56.1
2017-04-29T06:01:37.788Z,56.01
2017-04-29T06:02:18.307Z,56.38
2017-04-29T06:02:58.830Z,56.29
2017-04-29T06:03:39.361Z,56.1
2017-04-29T06:04:19.877Z,56.1
2017-04-29T06:05:00.413Z,55.91
2017-04-29T06:05:40.923Z,56.2
2017-04-29T06:06:21.424Z,56.87
2017-04-29T06:07:01.936Z,56.58
2017-04-29T06:07:42.399Z,56.48
2017-04-29T06:08:22.946Z,56.2
2017-04-29T06:09:03.399Z,56.38
2017-04-29T06:09:43.918Z,55.82
2017-04-29T06:10:24.397Z,55.72
2017-04-29T06:11:04.876Z,55.91
2017-04-29T06:11:45.416Z,56.29
2017-04-29T06:12:25.922Z,55.62
2017-04-29T06:13:06.425Z,55.62
2017-04-29T06:13:46.910Z,55.43
2017-04-29T06:14:27.418Z,55.82
2017-04-29T06:16:45.902Z,56.01
2017-04-29T06:17:26.456Z,55.65
2017-04-29T06:18:06.965Z,55.46
2017-04-29T06:18:47.469Z,55.36
2017-04-29T06:19:27.989Z,54.99
2017-04-29T06:20:08.507Z,54.99
2017-04-29T06:20:49.038Z,54.99
2017-04-29T06:21:29.557Z,55.36
2017-04-29T06:22:10.078Z,55.46
2017-04-29T06:22:50.592Z,55.36
2017-04-29T06:23:31.108Z,55.55
2017-04-29T06:24:11.640Z,55.27
2017-04-29T06:24:52.166Z,55.36
2017-04-29T06:25:32.693Z,54.99
2017-04-29T06:26:13.208Z,54.7
2017-04-29T06:26:53.697Z,54.44
2017-04-29T06:27:34.217Z,53.96
2017-04-29T06:28:14.757Z,53.77
2017-04-29T06:28:55.273Z,53.67
2017-04-29T06:29:35.829Z,52.91
2017-04-29T06:30:16.355Z,52.81
2017-04-29T06:30:56.876Z,52.62
2017-04-29T06:31:37.368Z,52.72
2017-04-29T06:32:17.954Z,52.62
2017-04-29T06:32:58.409Z,52.34
2017-04-29T06:33:38.916Z,53.1
2017-04-29T06:34:19.398Z,52.81
2017-04-29T06:34:59.929Z,53.2
2017-04-29T06:35:40.450Z,52.91
2017-04-29T06:36:21.100Z,53.1
2017-04-29T06:37:01.695Z,53.2
2017-04-29T06:37:42.207Z,52.62
2017-04-29T06:38:23.011Z,52.81
2017-04-29T06:39:03.296Z,53
2017-04-29T06:39:43.787Z,52.53
2017-04-29T06:40:24.289Z,52.43
2017-04-29T06:41:04.752Z,52.62
2017-04-29T06:41:45.258Z,52.72
2017-04-29T06:42:25.763Z,51.95
2017-04-29T06:43:06.255Z,51.89
2017-04-29T06:43:46.778Z,51.98
2017-04-29T06:44:27.236Z,52.17
2017-04-29T06:45:07.740Z,52.36
2017-04-29T06:45:48.261Z,52.26
2017-04-29T06:46:28.729Z,51.98
2017-04-29T06:47:09.203Z,52.17
2017-04-29T06:47:49.694Z,51.5
2017-04-29T06:48:30.188Z,51.24
2017-04-29T06:49:10.699Z,51.03
2017-04-29T06:49:51.187Z,50.86
2017-04-29T06:50:31.698Z,50.19
2017-04-29T06:51:12.217Z,49.62
2017-04-29T06:51:52.738Z,49.43
2017-04-29T06:52:33.221Z,48.97
2017-04-29T06:53:13.702Z,48.49
2017-04-29T06:53:54.215Z,48.49
2017-04-29T06:54:34.710Z,48.21
2017-04-29T06:55:15.226Z,48.49
2017-04-29T06:55:55.734Z,48.02
2017-04-29T06:56:36.188Z,48.3
2017-04-29T06:57:16.684Z,48.11
2017-04-29T06:57:57.206Z,48.21
2017-04-29T06:58:37.697Z,48.21
2017-04-29T06:59:18.179Z,47.82
2017-04-29T06:59:58.661Z,47.92
2017-04-29T07:00:39.174Z,47.25
2017-04-29T07:01:19.673Z,47.25
2017-04-29T07:02:00.158Z,47.34
2017-04-29T07:02:40.681Z,48.02
2017-04-29T07:03:21.145Z,48.02
2017-04-29T07:04:01.640Z,47.92
2017-04-29T07:04:42.170Z,48.21
2017-04-29T07:05:22.644Z,48.02
2017-04-29T07:06:03.167Z,48.11
2017-04-29T07:06:43.641Z,47.92
2017-04-29T07:07:24.148Z,47.92
2017-04-29T07:08:04.713Z,47.73
2017-04-29T07:09:52.247Z,47.82
2017-04-29T07:10:32.727Z,48.02
2017-04-29T07:11:13.244Z,47.75
2017-04-29T07:11:53.793Z,47.47
2017-04-29T07:12:34.326Z,46.98
2017-04-29T07:13:14.882Z,47.18
2017-04-29T07:13:55.398Z,47.08
2017-04-29T07:14:35.913Z,46.87
2017-04-29T07:15:16.444Z,47.18
2017-04-29T07:15:56.956Z,46.7
2017-04-29T07:16:37.468Z,47.27
2017-04-29T07:17:17.977Z,47.18
2017-04-29T07:17:58.498Z,46.51
2017-04-29T07:18:39.041Z,46.03
2017-04-29T07:19:19.555Z,46.22
2017-04-29T07:20:00.033Z,46.41
2017-04-29T07:20:40.537Z,46.41
2017-04-29T07:21:21.052Z,46.98
2017-04-29T07:22:01.582Z,46.8
2017-04-29T07:22:42.094Z,46.22
2017-04-29T07:23:22.606Z,46.03
2017-04-29T07:24:03.114Z,46.31
2017-04-29T07:24:43.621Z,46.12
2017-04-29T07:25:24.298Z,46.22
2017-04-29T07:26:04.663Z,46.03
2017-04-29T07:26:45.182Z,46.03
2017-04-29T07:27:25.710Z,45.74
2017-04-29T07:28:06.221Z,46.12
2017-04-29T07:28:46.734Z,46.51
2017-04-29T07:29:27.230Z,46.31
2017-04-29T07:30:07.730Z,46.15
2017-04-29T07:30:48.229Z,46.05
2017-04-29T07:31:28.770Z,45.76
2017-04-29T07:32:09.290Z,45.76
2017-04-29T07:32:49.880Z,45.76
2017-04-29T07:33:30.406Z,45.48
2017-04-29T07:34:10.935Z,45.57
2017-04-29T07:34:51.464Z,46.15
2017-04-29T07:35:32.013Z,46.15
2017-04-29T07:36:12.541Z,45.67
2017-04-29T07:36:53.052Z,46.05
2017-04-29T07:37:33.563Z,46.51
2017-04-29T07:38:14.096Z,47.11
2017-04-29T07:38:54.619Z,46.8
2017-04-29T07:39:35.126Z,46.61
2017-04-29T07:40:15.652Z,46.34
2017-04-29T07:42:03.465Z,46.53
2017-04-29T07:42:43.982Z,46.25
2017-04-29T07:43:24.506Z,46.34
2017-04-29T07:44:05.027Z,46.25
2017-04-29T07:44:45.549Z,46.41
2017-04-29T07:45:26.101Z,46.61
2017-04-29T07:46:06.627Z,46.7
2017-04-29T07:46:47.195Z,46.12
2017-04-29T07:47:27.721Z,46.61
2017-04-29T07:48:08.243Z,46.61
2017-04-29T07:48:48.764Z,47.18
2017-04-29T07:49:29.298Z,46.89
2017-04-29T07:50:09.824Z,46.7
2017-04-29T07:50:50.365Z,46.8
2017-04-29T07:51:30.875Z,46.7
2017-04-29T07:52:11.393Z,46.8
2017-04-29T07:52:51.939Z,46.98
2017-04-29T07:53:32.513Z,47.25
2017-04-29T07:54:13.034Z,47.47
2017-04-29T07:54:53.545Z,47.94
2017-04-29T07:55:34.121Z,48.04
2017-04-29T07:56:14.685Z,47.94
2017-04-29T07:56:55.212Z,47.85
2017-04-29T07:57:35.731Z,47.75
2017-04-29T07:58:16.261Z,47.94
2017-04-29T07:58:56.807Z,47.37
2017-04-29T07:59:37.329Z,47.08
2017-04-29T08:00:17.843Z,46.98
2017-04-29T08:00:58.378Z,47.08
2017-04-29T08:01:39.246Z,47.39
2017-04-29T08:02:19.458Z,47.39
2017-04-29T08:02:59.952Z,48.07
2017-04-29T08:03:40.475Z,48.16
2017-04-29T08:04:20.999Z,48.16
2017-04-29T08:05:01.472Z,47.39
2017-04-29T08:05:41.993Z,47.78
2017-04-29T08:06:22.541Z,48.07
2017-04-29T08:07:03.060Z,47.97
2017-04-29T08:07:43.584Z,47.49
2017-04-29T08:08:24.116Z,47.39
2017-04-29T08:09:04.645Z,47.27
2017-04-29T08:09:45.178Z,47.94
2017-04-29T08:10:25.697Z,48.13
2017-04-29T08:11:06.248Z,48.04
2017-04-29T08:11:46.765Z,48.04
2017-04-29T08:12:27.386Z,48.25
2017-04-29T08:13:07.873Z,47.78
2017-04-29T08:13:48.434Z,48.13
2017-04-29T08:14:28.956Z,47.87
2017-04-29T08:15:09.487Z,47.97
2017-04-29T08:15:50.024Z,47.68
2017-04-29T08:16:30.545Z,48.13
2017-04-29T08:17:11.092Z,47.94
2017-04-29T08:17:51.614Z,48.52
2017-04-29T08:18:32.128Z,48.61
2017-04-29T08:19:12.660Z,48.61
2017-04-29T08:19:53.183Z,48.61
2017-04-29T08:20:33.720Z,48.33
2017-04-29T08:21:14.287Z,47.94
2017-04-29T08:21:54.807Z,48.61
2017-04-29T08:22:35.342Z,48.52
2017-04-29T08:23:15.880Z,48.23
2017-04-29T08:25:03.901Z,48.52
2017-04-29T08:25:44.409Z,48.42
2017-04-29T08:26:25.051Z,48.25
2017-04-29T08:27:05.595Z,48.42
2017-04-29T08:27:46.177Z,48.44
2017-04-29T08:28:26.627Z,48.52
2017-04-29T08:29:07.199Z,48.54
2017-04-29T08:29:47.710Z,48.23
2017-04-29T08:30:28.227Z,48.42
2017-04-29T08:31:08.731Z,49
2017-04-29T08:31:49.259Z,48.52
2017-04-29T08:32:29.783Z,48.8
2017-04-29T08:33:10.327Z,48.88
2017-04-29T08:33:50.883Z,48.78
2017-04-29T08:34:31.349Z,49.64
2017-04-29T08:35:11.826Z,49.45
2017-04-29T08:35:52.337Z,49.84
2017-04-29T08:36:32.834Z,49.74
2017-04-29T08:37:13.354Z,50.02
2017-04-29T08:37:53.865Z,49.55
2017-04-29T08:38:34.378Z,50.12
2017-04-29T08:39:14.891Z,50.21
2017-04-29T08:39:55.383Z,50.12
2017-04-29T08:40:35.932Z,50.02
2017-04-29T08:41:16.438Z,50.21
2017-04-29T08:41:56.963Z,50.02
2017-04-29T08:42:37.491Z,49.84
2017-04-29T08:43:18.009Z,50.41
2017-04-29T08:43:58.542Z,49.74
2017-04-29T08:44:39.106Z,49.35
2017-04-29T08:45:19.602Z,50.12
2017-04-29T08:46:00.187Z,49.84
2017-04-29T08:46:40.705Z,49.86
2017-04-29T08:47:21.227Z,49.48
2017-04-29T08:48:01.798Z,49.38
2017-04-29T08:48:42.303Z,48.61
2017-04-29T08:49:22.833Z,48.42
2017-04-29T08:50:03.357Z,48.35
2017-04-29T08:50:43.901Z,48.54
2017-04-29T08:51:24.427Z,48.07
2017-04-29T08:52:04.915Z,48.35
2017-04-29T08:52:45.646Z,48.35
2017-04-29T08:53:26.328Z,47.78
2017-04-29T08:54:06.795Z,47.11
2017-04-29T08:54:47.298Z,47.39